sensor_id;sensor_type;location;lat;lon;timestamp;P1;durP1;ratioP1;P2;durP2;ratioP2
5981;SDS011;3018;48.730;9.336;2023-06-14T00:00:52;4.05;;;3.75;;
5981;SDS011;3018;48.730;9.336;2023-06-14T00:03:21;4.63;;;3.63;;
5981;SDS011;3018;48.730;9.336;2023-06-14T00:05:49;4.03;;;3.60;;
5981;SDS011;3018;48.730;9.336;2023-06-14T00:08:16;3.78;;;3.47;;
5981;SDS011;3018;48.730;9.336;2023-06-14T00:10:43;4.00;;;3.60;;
5981;SDS011;3018;48.730;9.336;2023-06-14T00:13:11;5.32;;;3.92;;
5981;SDS011;3018;48.730;9.336;2023-06-14T00:15:37;3.60;;;3.40;;
5981;SDS011;3018;48.730;9.336;2023-06-14T00:18:04;4.05;;;3.70;;
5981;SDS011;3018;48.730;9.336;2023-06-14T00:20:31;3.92;;;3.47;;
5981;SDS011;3018;48.730;9.336;2023-06-14T00:22:57;3.80;;;3.50;;
5981;SDS011;3018;48.730;9.336;2023-06-14T00:25:24;6.18;;;3.60;;
5981;SDS011;3018;48.730;9.336;2023-06-14T00:27:51;3.60;;;3.45;;
5981;SDS011;3018;48.730;9.336;2023-06-14T00:30:18;4.60;;;3.92;;
5981;SDS011;3018;48.730;9.336;2023-06-14T00:32:45;7.43;;;3.67;;
5981;SDS011;3018;48.730;9.336;2023-06-14T00:35:11;4.15;;;3.75;;
5981;SDS011;3018;48.730;9.336;2023-06-14T00:37:38;4.00;;;3.70;;
5981;SDS011;3018;48.730;9.336;2023-06-14T00:40:04;5.55;;;3.45;;
5981;SDS011;3018;48.730;9.336;2023-06-14T00:42:31;4.13;;;3.83;;
5981;SDS011;3018;48.730;9.336;2023-06-14T00:44:59;6.78;;;3.67;;
5981;SDS011;3018;48.730;9.336;2023-06-14T00:47:27;4.25;;;3.88;;
5981;SDS011;3018;48.730;9.336;2023-06-14T00:49:53;4.57;;;3.40;;
5981;SDS011;3018;48.730;9.336;2023-06-14T00:52:21;3.65;;;3.35;;
5981;SDS011;3018;48.730;9.336;2023-06-14T00:54:49;4.07;;;3.75;;
5981;SDS011;3018;48.730;9.336;2023-06-14T00:57:15;8.25;;;4.10;;
5981;SDS011;3018;48.730;9.336;2023-06-14T00:59:43;3.78;;;3.55;;
5981;SDS011;3018;48.730;9.336;2023-06-14T01:02:09;4.13;;;3.85;;
5981;SDS011;3018;48.730;9.336;2023-06-14T01:04:37;4.05;;;3.20;;
5981;SDS011;3018;48.730;9.336;2023-06-14T01:07:06;3.75;;;3.53;;
5981;SDS011;3018;48.730;9.336;2023-06-14T01:09:41;4.05;;;3.70;;
5981;SDS011;3018;48.730;9.336;2023-06-14T01:12:11;3.65;;;3.42;;
5981;SDS011;3018;48.730;9.336;2023-06-14T01:14:39;3.95;;;3.63;;
5981;SDS011;3018;48.730;9.336;2023-06-14T01:17:07;3.58;;;3.38;;
5981;SDS011;3018;48.730;9.336;2023-06-14T01:19:42;3.47;;;3.28;;
5981;SDS011;3018;48.730;9.336;2023-06-14T01:22:08;5.60;;;3.85;;
5981;SDS011;3018;48.730;9.336;2023-06-14T01:24:36;4.70;;;3.63;;
5981;SDS011;3018;48.730;9.336;2023-06-14T01:27:04;3.80;;;3.50;;
5981;SDS011;3018;48.730;9.336;2023-06-14T01:29:32;6.50;;;3.90;;
5981;SDS011;3018;48.730;9.336;2023-06-14T01:32:01;4.00;;;3.70;;
5981;SDS011;3018;48.730;9.336;2023-06-14T01:34:27;3.97;;;3.67;;
5981;SDS011;3018;48.730;9.336;2023-06-14T01:36:54;6.65;;;3.45;;
5981;SDS011;3018;48.730;9.336;2023-06-14T01:39:20;3.50;;;3.35;;
5981;SDS011;3018;48.730;9.336;2023-06-14T01:41:49;4.40;;;4.00;;
5981;SDS011;3018;48.730;9.336;2023-06-14T01:44:16;3.50;;;3.30;;
5981;SDS011;3018;48.730;9.336;2023-06-14T01:46:43;4.22;;;3.80;;
5981;SDS011;3018;48.730;9.336;2023-06-14T01:49:10;4.22;;;3.60;;
5981;SDS011;3018;48.730;9.336;2023-06-14T01:51:36;3.70;;;3.40;;
5981;SDS011;3018;48.730;9.336;2023-06-14T01:54:02;3.85;;;3.60;;
5981;SDS011;3018;48.730;9.336;2023-06-14T01:56:29;4.60;;;3.67;;
5981;SDS011;3018;48.730;9.336;2023-06-14T01:58:57;4.75;;;3.67;;
5981;SDS011;3018;48.730;9.336;2023-06-14T02:01:23;3.95;;;3.70;;
5981;SDS011;3018;48.730;9.336;2023-06-14T02:03:49;4.00;;;3.70;;
5981;SDS011;3018;48.730;9.336;2023-06-14T02:06:16;4.72;;;3.58;;
5981;SDS011;3018;48.730;9.336;2023-06-14T02:08:42;3.50;;;3.30;;
5981;SDS011;3018;48.730;9.336;2023-06-14T02:11:08;4.07;;;3.60;;
5981;SDS011;3018;48.730;9.336;2023-06-14T02:13:35;3.88;;;3.67;;
5981;SDS011;3018;48.730;9.336;2023-06-14T02:16:02;4.93;;;3.72;;
5981;SDS011;3018;48.730;9.336;2023-06-14T02:18:29;4.15;;;3.60;;
5981;SDS011;3018;48.730;9.336;2023-06-14T02:20:56;4.45;;;4.10;;
5981;SDS011;3018;48.730;9.336;2023-06-14T02:23:22;4.25;;;3.70;;
5981;SDS011;3018;48.730;9.336;2023-06-14T02:25:48;7.30;;;3.60;;
5981;SDS011;3018;48.730;9.336;2023-06-14T02:28:15;3.88;;;3.58;;
5981;SDS011;3018;48.730;9.336;2023-06-14T02:30:41;9.23;;;3.70;;
5981;SDS011;3018;48.730;9.336;2023-06-14T02:33:08;4.22;;;3.90;;
5981;SDS011;3018;48.730;9.336;2023-06-14T02:35:38;3.50;;;3.30;;
5981;SDS011;3018;48.730;9.336;2023-06-14T02:38:04;5.07;;;3.50;;
5981;SDS011;3018;48.730;9.336;2023-06-14T02:40:30;5.35;;;3.78;;
5981;SDS011;3018;48.730;9.336;2023-06-14T02:42:56;4.32;;;4.00;;
5981;SDS011;3018;48.730;9.336;2023-06-14T02:45:23;5.07;;;3.58;;
5981;SDS011;3018;48.730;9.336;2023-06-14T02:47:49;4.47;;;3.83;;
5981;SDS011;3018;48.730;9.336;2023-06-14T02:50:17;4.00;;;3.78;;
5981;SDS011;3018;48.730;9.336;2023-06-14T02:52:44;3.72;;;3.42;;
5981;SDS011;3018;48.730;9.336;2023-06-14T02:55:10;4.43;;;3.80;;
5981;SDS011;3018;48.730;9.336;2023-06-14T02:57:36;4.55;;;3.60;;
5981;SDS011;3018;48.730;9.336;2023-06-14T03:00:03;3.55;;;3.33;;
5981;SDS011;3018;48.730;9.336;2023-06-14T03:02:30;3.53;;;3.22;;
5981;SDS011;3018;48.730;9.336;2023-06-14T03:04:56;4.22;;;3.85;;
5981;SDS011;3018;48.730;9.336;2023-06-14T03:07:27;5.00;;;4.60;;
5981;SDS011;3018;48.730;9.336;2023-06-14T03:09:54;4.35;;;3.95;;
5981;SDS011;3018;48.730;9.336;2023-06-14T03:12:21;4.00;;;3.70;;
5981;SDS011;3018;48.730;9.336;2023-06-14T03:14:49;4.40;;;4.00;;
5981;SDS011;3018;48.730;9.336;2023-06-14T03:17:16;4.53;;;4.13;;
5981;SDS011;3018;48.730;9.336;2023-06-14T03:19:44;4.35;;;3.90;;
5981;SDS011;3018;48.730;9.336;2023-06-14T03:22:10;5.75;;;3.70;;
5981;SDS011;3018;48.730;9.336;2023-06-14T03:24:39;6.15;;;4.43;;
5981;SDS011;3018;48.730;9.336;2023-06-14T03:27:06;5.53;;;4.03;;
5981;SDS011;3018;48.730;9.336;2023-06-14T03:29:34;4.82;;;4.30;;
5981;SDS011;3018;48.730;9.336;2023-06-14T03:32:01;4.13;;;3.83;;
5981;SDS011;3018;48.730;9.336;2023-06-14T03:34:28;4.20;;;3.75;;
5981;SDS011;3018;48.730;9.336;2023-06-14T03:36:55;4.25;;;3.92;;
5981;SDS011;3018;48.730;9.336;2023-06-14T03:39:21;4.70;;;4.05;;
5981;SDS011;3018;48.730;9.336;2023-06-14T03:41:49;5.75;;;4.28;;
5981;SDS011;3018;48.730;9.336;2023-06-14T03:44:16;6.03;;;4.50;;
5981;SDS011;3018;48.730;9.336;2023-06-14T03:46:42;4.82;;;4.22;;
5981;SDS011;3018;48.730;9.336;2023-06-14T03:49:09;4.95;;;4.55;;
5981;SDS011;3018;48.730;9.336;2023-06-14T03:51:36;4.60;;;4.20;;
5981;SDS011;3018;48.730;9.336;2023-06-14T03:54:02;4.43;;;4.05;;
5981;SDS011;3018;48.730;9.336;2023-06-14T03:56:28;4.50;;;4.10;;
5981;SDS011;3018;48.730;9.336;2023-06-14T03:58:56;4.15;;;3.88;;
5981;SDS011;3018;48.730;9.336;2023-06-14T04:01:22;5.00;;;4.57;;
5981;SDS011;3018;48.730;9.336;2023-06-14T04:03:54;5.28;;;4.40;;
5981;SDS011;3018;48.730;9.336;2023-06-14T04:06:20;3.95;;;3.67;;
5981;SDS011;3018;48.730;9.336;2023-06-14T04:08:47;4.95;;;4.40;;
5981;SDS011;3018;48.730;9.336;2023-06-14T04:11:14;4.35;;;4.05;;
5981;SDS011;3018;48.730;9.336;2023-06-14T04:13:40;4.40;;;4.00;;
5981;SDS011;3018;48.730;9.336;2023-06-14T04:16:08;4.18;;;3.67;;
5981;SDS011;3018;48.730;9.336;2023-06-14T04:18:34;5.07;;;3.90;;
5981;SDS011;3018;48.730;9.336;2023-06-14T04:21:00;4.95;;;4.20;;
5981;SDS011;3018;48.730;9.336;2023-06-14T04:23:27;4.82;;;4.43;;
5981;SDS011;3018;48.730;9.336;2023-06-14T04:25:53;3.70;;;3.50;;
5981;SDS011;3018;48.730;9.336;2023-06-14T04:28:19;4.90;;;4.20;;
5981;SDS011;3018;48.730;9.336;2023-06-14T04:30:50;5.05;;;4.65;;
5981;SDS011;3018;48.730;9.336;2023-06-14T04:33:20;4.60;;;4.20;;
5981;SDS011;3018;48.730;9.336;2023-06-14T04:35:46;4.32;;;3.70;;
5981;SDS011;3018;48.730;9.336;2023-06-14T04:38:13;5.40;;;4.47;;
5981;SDS011;3018;48.730;9.336;2023-06-14T04:40:40;6.28;;;4.63;;
5981;SDS011;3018;48.730;9.336;2023-06-14T04:43:09;3.97;;;3.78;;
5981;SDS011;3018;48.730;9.336;2023-06-14T04:45:37;6.47;;;4.22;;
5981;SDS011;3018;48.730;9.336;2023-06-14T04:48:05;4.85;;;3.88;;
5981;SDS011;3018;48.730;9.336;2023-06-14T04:50:33;8.70;;;4.60;;
5981;SDS011;3018;48.730;9.336;2023-06-14T04:53:00;4.55;;;4.13;;
5981;SDS011;3018;48.730;9.336;2023-06-14T04:55:26;4.20;;;3.90;;
5981;SDS011;3018;48.730;9.336;2023-06-14T04:57:52;4.82;;;4.30;;
5981;SDS011;3018;48.730;9.336;2023-06-14T05:00:19;4.22;;;3.92;;
5981;SDS011;3018;48.730;9.336;2023-06-14T05:02:45;4.43;;;4.03;;
5981;SDS011;3018;48.730;9.336;2023-06-14T05:05:14;4.72;;;4.40;;
5981;SDS011;3018;48.730;9.336;2023-06-14T05:07:42;8.00;;;5.22;;
5981;SDS011;3018;48.730;9.336;2023-06-14T05:10:08;8.65;;;6.10;;
5981;SDS011;3018;48.730;9.336;2023-06-14T05:12:34;6.97;;;5.70;;
5981;SDS011;3018;48.730;9.336;2023-06-14T05:15:01;9.13;;;5.70;;
5981;SDS011;3018;48.730;9.336;2023-06-14T05:17:28;7.72;;;5.78;;
5981;SDS011;3018;48.730;9.336;2023-06-14T05:19:54;9.73;;;6.07;;
5981;SDS011;3018;48.730;9.336;2023-06-14T05:22:20;9.52;;;5.80;;
5981;SDS011;3018;48.730;9.336;2023-06-14T05:24:48;11.65;;;5.93;;
5981;SDS011;3018;48.730;9.336;2023-06-14T05:27:14;8.63;;;5.32;;
5981;SDS011;3018;48.730;9.336;2023-06-14T05:29:40;6.57;;;5.57;;
5981;SDS011;3018;48.730;9.336;2023-06-14T05:32:07;11.43;;;5.50;;
5981;SDS011;3018;48.730;9.336;2023-06-14T05:34:33;6.93;;;5.57;;
5981;SDS011;3018;48.730;9.336;2023-06-14T05:37:00;10.30;;;5.47;;
5981;SDS011;3018;48.730;9.336;2023-06-14T05:39:26;10.95;;;5.50;;
5981;SDS011;3018;48.730;9.336;2023-06-14T05:41:53;6.80;;;4.68;;
5981;SDS011;3018;48.730;9.336;2023-06-14T05:44:20;7.25;;;4.60;;
5981;SDS011;3018;48.730;9.336;2023-06-14T05:46:46;10.90;;;5.38;;
5981;SDS011;3018;48.730;9.336;2023-06-14T05:49:12;7.35;;;4.53;;
5981;SDS011;3018;48.730;9.336;2023-06-14T05:51:39;7.30;;;5.43;;
5981;SDS011;3018;48.730;9.336;2023-06-14T05:54:05;10.00;;;6.00;;
5981;SDS011;3018;48.730;9.336;2023-06-14T05:56:31;6.93;;;5.47;;
5981;SDS011;3018;48.730;9.336;2023-06-14T05:58:59;13.27;;;6.22;;
5981;SDS011;3018;48.730;9.336;2023-06-14T06:01:25;14.18;;;6.50;;
5981;SDS011;3018;48.730;9.336;2023-06-14T06:03:51;8.20;;;5.88;;
5981;SDS011;3018;48.730;9.336;2023-06-14T06:06:18;11.20;;;6.07;;
5981;SDS011;3018;48.730;9.336;2023-06-14T06:08:44;12.60;;;6.38;;
5981;SDS011;3018;48.730;9.336;2023-06-14T06:11:11;11.60;;;6.60;;
5981;SDS011;3018;48.730;9.336;2023-06-14T06:13:37;7.47;;;6.20;;
5981;SDS011;3018;48.730;9.336;2023-06-14T06:16:05;5.47;;;4.97;;
5981;SDS011;3018;48.730;9.336;2023-06-14T06:18:31;9.88;;;6.13;;
5981;SDS011;3018;48.730;9.336;2023-06-14T06:20:57;11.65;;;6.50;;
5981;SDS011;3018;48.730;9.336;2023-06-14T06:23:24;10.75;;;6.45;;
5981;SDS011;3018;48.730;9.336;2023-06-14T06:25:50;8.77;;;5.80;;
5981;SDS011;3018;48.730;9.336;2023-06-14T06:28:17;13.43;;;6.60;;
5981;SDS011;3018;48.730;9.336;2023-06-14T06:30:43;9.40;;;5.80;;
5981;SDS011;3018;48.730;9.336;2023-06-14T06:33:11;9.85;;;5.95;;
5981;SDS011;3018;48.730;9.336;2023-06-14T06:35:38;8.38;;;5.70;;
5981;SDS011;3018;48.730;9.336;2023-06-14T06:38:04;8.73;;;6.07;;
5981;SDS011;3018;48.730;9.336;2023-06-14T06:40:30;15.88;;;6.25;;
5981;SDS011;3018;48.730;9.336;2023-06-14T06:42:57;8.95;;;5.60;;
5981;SDS011;3018;48.730;9.336;2023-06-14T06:45:23;6.43;;;5.18;;
5981;SDS011;3018;48.730;9.336;2023-06-14T06:47:50;14.00;;;6.15;;
5981;SDS011;3018;48.730;9.336;2023-06-14T06:50:18;13.93;;;6.68;;
5981;SDS011;3018;48.730;9.336;2023-06-14T06:52:44;6.00;;;5.00;;
5981;SDS011;3018;48.730;9.336;2023-06-14T06:55:11;7.80;;;4.80;;
5981;SDS011;3018;48.730;9.336;2023-06-14T06:57:38;13.35;;;5.40;;
5981;SDS011;3018;48.730;9.336;2023-06-14T07:00:04;10.32;;;5.35;;
5981;SDS011;3018;48.730;9.336;2023-06-14T07:02:33;13.90;;;5.47;;
5981;SDS011;3018;48.730;9.336;2023-06-14T07:04:59;9.60;;;5.00;;
5981;SDS011;3018;48.730;9.336;2023-06-14T07:07:27;12.93;;;5.15;;
5981;SDS011;3018;48.730;9.336;2023-06-14T07:09:53;7.60;;;5.05;;
5981;SDS011;3018;48.730;9.336;2023-06-14T07:12:19;9.88;;;5.15;;
5981;SDS011;3018;48.730;9.336;2023-06-14T07:14:46;7.97;;;4.78;;
5981;SDS011;3018;48.730;9.336;2023-06-14T07:17:12;7.93;;;4.60;;
5981;SDS011;3018;48.730;9.336;2023-06-14T07:19:38;9.10;;;4.05;;
5981;SDS011;3018;48.730;9.336;2023-06-14T07:22:04;8.45;;;4.03;;
5981;SDS011;3018;48.730;9.336;2023-06-14T07:24:32;8.50;;;4.20;;
5981;SDS011;3018;48.730;9.336;2023-06-14T07:27:01;8.13;;;4.22;;
5981;SDS011;3018;48.730;9.336;2023-06-14T07:29:28;4.13;;;3.72;;
5981;SDS011;3018;48.730;9.336;2023-06-14T07:31:54;7.35;;;3.60;;
5981;SDS011;3018;48.730;9.336;2023-06-14T07:34:20;12.20;;;3.90;;
5981;SDS011;3018;48.730;9.336;2023-06-14T07:36:47;4.15;;;3.30;;
5981;SDS011;3018;48.730;9.336;2023-06-14T07:39:13;5.47;;;3.47;;
5981;SDS011;3018;48.730;9.336;2023-06-14T07:41:40;6.07;;;2.92;;
5981;SDS011;3018;48.730;9.336;2023-06-14T07:44:07;5.70;;;3.53;;
5981;SDS011;3018;48.730;9.336;2023-06-14T07:46:33;4.13;;;3.50;;
5981;SDS011;3018;48.730;9.336;2023-06-14T07:49:00;3.22;;;3.03;;
5981;SDS011;3018;48.730;9.336;2023-06-14T07:51:26;3.20;;;3.00;;
5981;SDS011;3018;48.730;9.336;2023-06-14T07:53:52;3.72;;;3.42;;
5981;SDS011;3018;48.730;9.336;2023-06-14T07:56:19;4.45;;;3.67;;
5981;SDS011;3018;48.730;9.336;2023-06-14T07:58:46;4.75;;;3.30;;
5981;SDS011;3018;48.730;9.336;2023-06-14T08:01:13;6.72;;;3.05;;
5981;SDS011;3018;48.730;9.336;2023-06-14T08:03:40;8.60;;;3.45;;
5981;SDS011;3018;48.730;9.336;2023-06-14T08:06:06;4.70;;;3.35;;
5981;SDS011;3018;48.730;9.336;2023-06-14T08:08:33;3.97;;;3.45;;
5981;SDS011;3018;48.730;9.336;2023-06-14T08:10:59;8.63;;;3.58;;
5981;SDS011;3018;48.730;9.336;2023-06-14T08:13:25;6.65;;;3.85;;
5981;SDS011;3018;48.730;9.336;2023-06-14T08:15:53;6.82;;;3.83;;
5981;SDS011;3018;48.730;9.336;2023-06-14T08:18:20;9.23;;;4.00;;
5981;SDS011;3018;48.730;9.336;2023-06-14T08:20:46;5.82;;;3.72;;
5981;SDS011;3018;48.730;9.336;2023-06-14T08:23:12;4.50;;;3.47;;
5981;SDS011;3018;48.730;9.336;2023-06-14T08:25:39;4.07;;;3.83;;
5981;SDS011;3018;48.730;9.336;2023-06-14T08:28:05;4.18;;;3.85;;
5981;SDS011;3018;48.730;9.336;2023-06-14T08:30:31;4.35;;;3.60;;
5981;SDS011;3018;48.730;9.336;2023-06-14T08:32:59;3.92;;;3.63;;
5981;SDS011;3018;48.730;9.336;2023-06-14T08:35:26;7.70;;;3.88;;
5981;SDS011;3018;48.730;9.336;2023-06-14T08:37:52;5.72;;;3.80;;
5981;SDS011;3018;48.730;9.336;2023-06-14T08:40:19;5.70;;;4.28;;
5981;SDS011;3018;48.730;9.336;2023-06-14T08:42:47;5.93;;;3.70;;
5981;SDS011;3018;48.730;9.336;2023-06-14T08:45:14;3.80;;;3.50;;
5981;SDS011;3018;48.730;9.336;2023-06-14T08:47:40;4.10;;;3.67;;
5981;SDS011;3018;48.730;9.336;2023-06-14T08:50:08;4.07;;;3.75;;
5981;SDS011;3018;48.730;9.336;2023-06-14T08:52:36;5.97;;;3.30;;
5981;SDS011;3018;48.730;9.336;2023-06-14T08:55:05;5.55;;;3.53;;
5981;SDS011;3018;48.730;9.336;2023-06-14T08:57:31;3.75;;;3.45;;
5981;SDS011;3018;48.730;9.336;2023-06-14T09:00:02;6.15;;;3.83;;
5981;SDS011;3018;48.730;9.336;2023-06-14T09:02:35;4.13;;;3.70;;
5981;SDS011;3018;48.730;9.336;2023-06-14T09:05:01;3.80;;;3.50;;
5981;SDS011;3018;48.730;9.336;2023-06-14T09:07:29;4.20;;;3.75;;
5981;SDS011;3018;48.730;9.336;2023-06-14T09:10:04;5.43;;;3.85;;
5981;SDS011;3018;48.730;9.336;2023-06-14T09:12:31;6.15;;;3.40;;
5981;SDS011;3018;48.730;9.336;2023-06-14T09:14:57;10.70;;;4.68;;
5981;SDS011;3018;48.730;9.336;2023-06-14T09:17:24;4.20;;;3.63;;
5981;SDS011;3018;48.730;9.336;2023-06-14T09:19:51;5.15;;;3.65;;
5981;SDS011;3018;48.730;9.336;2023-06-14T09:22:17;7.15;;;4.00;;
5981;SDS011;3018;48.730;9.336;2023-06-14T09:24:44;9.48;;;3.55;;
5981;SDS011;3018;48.730;9.336;2023-06-14T09:27:14;5.65;;;3.67;;
5981;SDS011;3018;48.730;9.336;2023-06-14T09:29:40;6.38;;;3.38;;
5981;SDS011;3018;48.730;9.336;2023-06-14T09:32:07;4.25;;;3.67;;
5981;SDS011;3018;48.730;9.336;2023-06-14T09:34:34;5.07;;;3.47;;
5981;SDS011;3018;48.730;9.336;2023-06-14T09:37:01;4.60;;;3.55;;
5981;SDS011;3018;48.730;9.336;2023-06-14T09:39:27;9.13;;;3.47;;
5981;SDS011;3018;48.730;9.336;2023-06-14T09:41:55;4.18;;;3.20;;
5981;SDS011;3018;48.730;9.336;2023-06-14T09:44:21;6.00;;;3.28;;
5981;SDS011;3018;48.730;9.336;2023-06-14T09:46:50;7.45;;;3.13;;
5981;SDS011;3018;48.730;9.336;2023-06-14T09:49:16;3.58;;;2.83;;
5981;SDS011;3018;48.730;9.336;2023-06-14T09:51:43;6.95;;;3.28;;
5981;SDS011;3018;48.730;9.336;2023-06-14T09:54:12;6.47;;;2.95;;
5981;SDS011;3018;48.730;9.336;2023-06-14T09:56:41;5.68;;;2.70;;
5981;SDS011;3018;48.730;9.336;2023-06-14T09:59:09;3.95;;;2.92;;
5981;SDS011;3018;48.730;9.336;2023-06-14T10:01:39;3.58;;;3.38;;
5981;SDS011;3018;48.730;9.336;2023-06-14T10:04:07;6.05;;;3.47;;
5981;SDS011;3018;48.730;9.336;2023-06-14T10:06:35;3.95;;;3.53;;
5981;SDS011;3018;48.730;9.336;2023-06-14T10:09:02;6.10;;;3.30;;
5981;SDS011;3018;48.730;9.336;2023-06-14T10:11:30;4.05;;;3.40;;
5981;SDS011;3018;48.730;9.336;2023-06-14T10:13:57;5.40;;;3.30;;
5981;SDS011;3018;48.730;9.336;2023-06-14T10:16:27;3.97;;;3.47;;
5981;SDS011;3018;48.730;9.336;2023-06-14T10:18:59;3.50;;;3.08;;
5981;SDS011;3018;48.730;9.336;2023-06-14T10:21:28;4.88;;;3.42;;
5981;SDS011;3018;48.730;9.336;2023-06-14T10:23:59;6.07;;;3.17;;
5981;SDS011;3018;48.730;9.336;2023-06-14T10:26:26;11.02;;;3.22;;
5981;SDS011;3018;48.730;9.336;2023-06-14T10:28:57;10.07;;;3.50;;
5981;SDS011;3018;48.730;9.336;2023-06-14T10:31:26;5.05;;;3.35;;
5981;SDS011;3018;48.730;9.336;2023-06-14T10:34:05;4.63;;;3.15;;
5981;SDS011;3018;48.730;9.336;2023-06-14T10:36:31;4.43;;;3.15;;
5981;SDS011;3018;48.730;9.336;2023-06-14T10:39:00;4.30;;;3.33;;
5981;SDS011;3018;48.730;9.336;2023-06-14T10:41:27;3.47;;;2.80;;
5981;SDS011;3018;48.730;9.336;2023-06-14T10:46:36;5.43;;;3.45;;
5981;SDS011;3018;48.730;9.336;2023-06-14T10:49:02;3.50;;;3.28;;
5981;SDS011;3018;48.730;9.336;2023-06-14T10:51:30;6.00;;;3.25;;
5981;SDS011;3018;48.730;9.336;2023-06-14T10:54:11;8.20;;;3.67;;
5981;SDS011;3018;48.730;9.336;2023-06-14T10:56:37;3.38;;;3.15;;
5981;SDS011;3018;48.730;9.336;2023-06-14T10:59:03;5.75;;;3.95;;
5981;SDS011;3018;48.730;9.336;2023-06-14T11:01:35;4.63;;;3.65;;
5981;SDS011;3018;48.730;9.336;2023-06-14T11:04:10;4.68;;;3.30;;
5981;SDS011;3018;48.730;9.336;2023-06-14T11:06:44;4.53;;;3.17;;
5981;SDS011;3018;48.730;9.336;2023-06-14T11:12:08;5.97;;;3.53;;
5981;SDS011;3018;48.730;9.336;2023-06-14T11:14:35;3.60;;;3.35;;
5981;SDS011;3018;48.730;9.336;2023-06-14T11:17:02;5.93;;;2.70;;
5981;SDS011;3018;48.730;9.336;2023-06-14T11:19:29;5.78;;;3.08;;
5981;SDS011;3018;48.730;9.336;2023-06-14T11:21:56;3.53;;;3.30;;
5981;SDS011;3018;48.730;9.336;2023-06-14T11:24:23;3.28;;;3.08;;
5981;SDS011;3018;48.730;9.336;2023-06-14T11:26:49;6.47;;;3.55;;
5981;SDS011;3018;48.730;9.336;2023-06-14T11:29:15;5.30;;;3.45;;
5981;SDS011;3018;48.730;9.336;2023-06-14T11:31:43;7.53;;;3.13;;
5981;SDS011;3018;48.730;9.336;2023-06-14T11:34:09;9.02;;;3.03;;
5981;SDS011;3018;48.730;9.336;2023-06-14T11:36:38;4.78;;;3.42;;
5981;SDS011;3018;48.730;9.336;2023-06-14T11:39:04;5.18;;;3.33;;
5981;SDS011;3018;48.730;9.336;2023-06-14T11:41:32;3.38;;;2.80;;
5981;SDS011;3018;48.730;9.336;2023-06-14T11:43:59;4.07;;;3.22;;
5981;SDS011;3018;48.730;9.336;2023-06-14T11:46:26;4.15;;;3.22;;
5981;SDS011;3018;48.730;9.336;2023-06-14T11:48:52;3.53;;;3.20;;
5981;SDS011;3018;48.730;9.336;2023-06-14T11:51:18;4.55;;;3.60;;
5981;SDS011;3018;48.730;9.336;2023-06-14T11:53:46;4.60;;;3.33;;
5981;SDS011;3018;48.730;9.336;2023-06-14T11:56:12;3.45;;;3.10;;
5981;SDS011;3018;48.730;9.336;2023-06-14T11:58:39;3.88;;;3.50;;
5981;SDS011;3018;48.730;9.336;2023-06-14T12:01:05;6.43;;;3.10;;
5981;SDS011;3018;48.730;9.336;2023-06-14T12:03:31;6.25;;;3.20;;
5981;SDS011;3018;48.730;9.336;2023-06-14T12:06:07;3.30;;;2.97;;
5981;SDS011;3018;48.730;9.336;2023-06-14T12:08:34;3.38;;;2.83;;
5981;SDS011;3018;48.730;9.336;2023-06-14T12:11:05;3.88;;;3.58;;
5981;SDS011;3018;48.730;9.336;2023-06-14T12:13:33;2.90;;;2.80;;
5981;SDS011;3018;48.730;9.336;2023-06-14T12:15:59;4.53;;;3.05;;
5981;SDS011;3018;48.730;9.336;2023-06-14T12:18:32;5.93;;;3.42;;
5981;SDS011;3018;48.730;9.336;2023-06-14T12:20:59;3.20;;;3.00;;
5981;SDS011;3018;48.730;9.336;2023-06-14T12:23:27;3.63;;;3.20;;
5981;SDS011;3018;48.730;9.336;2023-06-14T12:26:05;4.60;;;2.95;;
5981;SDS011;3018;48.730;9.336;2023-06-14T12:28:32;4.75;;;3.60;;
5981;SDS011;3018;48.730;9.336;2023-06-14T12:30:58;3.17;;;2.97;;
5981;SDS011;3018;48.730;9.336;2023-06-14T12:33:24;3.50;;;3.20;;
5981;SDS011;3018;48.730;9.336;2023-06-14T12:35:51;3.22;;;3.03;;
5981;SDS011;3018;48.730;9.336;2023-06-14T12:38:17;3.08;;;2.83;;
5981;SDS011;3018;48.730;9.336;2023-06-14T12:40:43;4.22;;;3.10;;
5981;SDS011;3018;48.730;9.336;2023-06-14T12:43:11;4.25;;;2.80;;
5981;SDS011;3018;48.730;9.336;2023-06-14T12:45:37;7.10;;;3.42;;
5981;SDS011;3018;48.730;9.336;2023-06-14T12:48:04;3.85;;;3.13;;
5981;SDS011;3018;48.730;9.336;2023-06-14T12:50:30;4.38;;;2.90;;
5981;SDS011;3018;48.730;9.336;2023-06-14T12:52:56;4.65;;;3.10;;
5981;SDS011;3018;48.730;9.336;2023-06-14T12:55:22;6.82;;;3.53;;
5981;SDS011;3018;48.730;9.336;2023-06-14T12:57:49;9.13;;;3.28;;
5981;SDS011;3018;48.730;9.336;2023-06-14T13:00:18;3.40;;;3.10;;
5981;SDS011;3018;48.730;9.336;2023-06-14T13:02:45;4.13;;;2.90;;
5981;SDS011;3018;48.730;9.336;2023-06-14T13:05:11;3.60;;;3.30;;
5981;SDS011;3018;48.730;9.336;2023-06-14T13:07:38;3.58;;;3.13;;
5981;SDS011;3018;48.730;9.336;2023-06-14T13:10:04;5.72;;;3.00;;
5981;SDS011;3018;48.730;9.336;2023-06-14T13:12:30;5.43;;;2.83;;
5981;SDS011;3018;48.730;9.336;2023-06-14T13:14:57;7.70;;;3.40;;
5981;SDS011;3018;48.730;9.336;2023-06-14T13:17:24;4.93;;;3.30;;
5981;SDS011;3018;48.730;9.336;2023-06-14T13:19:50;5.13;;;3.20;;
5981;SDS011;3018;48.730;9.336;2023-06-14T13:22:17;4.57;;;3.10;;
5981;SDS011;3018;48.730;9.336;2023-06-14T13:24:43;5.82;;;3.33;;
5981;SDS011;3018;48.730;9.336;2023-06-14T13:27:09;8.00;;;3.17;;
5981;SDS011;3018;48.730;9.336;2023-06-14T13:29:36;7.28;;;3.17;;
5981;SDS011;3018;48.730;9.336;2023-06-14T13:32:02;3.45;;;3.15;;
5981;SDS011;3018;48.730;9.336;2023-06-14T13:34:30;3.20;;;3.00;;
5981;SDS011;3018;48.730;9.336;2023-06-14T13:36:56;5.40;;;3.17;;
5981;SDS011;3018;48.730;9.336;2023-06-14T13:39:23;5.82;;;2.95;;
5981;SDS011;3018;48.730;9.336;2023-06-14T13:41:50;4.05;;;3.03;;
5981;SDS011;3018;48.730;9.336;2023-06-14T13:44:16;5.30;;;3.15;;
5981;SDS011;3018;48.730;9.336;2023-06-14T13:46:46;3.08;;;2.88;;
5981;SDS011;3018;48.730;9.336;2023-06-14T13:49:12;3.45;;;2.95;;
5981;SDS011;3018;48.730;9.336;2023-06-14T13:51:40;3.70;;;2.92;;
5981;SDS011;3018;48.730;9.336;2023-06-14T13:54:06;5.28;;;3.40;;
5981;SDS011;3018;48.730;9.336;2023-06-14T13:56:32;2.80;;;2.35;;
5981;SDS011;3018;48.730;9.336;2023-06-14T13:58:58;3.80;;;3.05;;
5981;SDS011;3018;48.730;9.336;2023-06-14T14:01:25;4.38;;;2.95;;
5981;SDS011;3018;48.730;9.336;2023-06-14T14:03:53;4.18;;;3.08;;
5981;SDS011;3018;48.730;9.336;2023-06-14T14:06:20;3.28;;;2.97;;
5981;SDS011;3018;48.730;9.336;2023-06-14T14:08:47;6.13;;;2.78;;
5981;SDS011;3018;48.730;9.336;2023-06-14T14:11:13;6.50;;;3.10;;
5981;SDS011;3018;48.730;9.336;2023-06-14T14:13:41;3.92;;;2.70;;
5981;SDS011;3018;48.730;9.336;2023-06-14T14:16:07;3.25;;;2.78;;
5981;SDS011;3018;48.730;9.336;2023-06-14T14:18:35;7.43;;;3.17;;
5981;SDS011;3018;48.730;9.336;2023-06-14T14:21:02;5.78;;;3.08;;
5981;SDS011;3018;48.730;9.336;2023-06-14T14:23:28;4.80;;;3.20;;
5981;SDS011;3018;48.730;9.336;2023-06-14T14:25:56;4.25;;;2.70;;
5981;SDS011;3018;48.730;9.336;2023-06-14T14:28:22;5.55;;;3.05;;
5981;SDS011;3018;48.730;9.336;2023-06-14T14:30:49;6.07;;;3.10;;
5981;SDS011;3018;48.730;9.336;2023-06-14T14:33:15;4.82;;;3.20;;
5981;SDS011;3018;48.730;9.336;2023-06-14T14:35:42;3.53;;;2.78;;
5981;SDS011;3018;48.730;9.336;2023-06-14T14:38:09;3.38;;;3.03;;
5981;SDS011;3018;48.730;9.336;2023-06-14T14:40:35;8.48;;;3.22;;
5981;SDS011;3018;48.730;9.336;2023-06-14T14:43:03;3.72;;;3.42;;
5981;SDS011;3018;48.730;9.336;2023-06-14T14:45:30;3.50;;;3.20;;
5981;SDS011;3018;48.730;9.336;2023-06-14T14:47:56;3.28;;;2.88;;
5981;SDS011;3018;48.730;9.336;2023-06-14T14:50:22;3.00;;;2.85;;
5981;SDS011;3018;48.730;9.336;2023-06-14T14:52:48;4.93;;;3.15;;
5981;SDS011;3018;48.730;9.336;2023-06-14T14:55:15;8.48;;;3.28;;
5981;SDS011;3018;48.730;9.336;2023-06-14T14:57:41;6.32;;;3.20;;
5981;SDS011;3018;48.730;9.336;2023-06-14T15:00:09;4.63;;;3.08;;
5981;SDS011;3018;48.730;9.336;2023-06-14T15:02:35;4.20;;;2.60;;
5981;SDS011;3018;48.730;9.336;2023-06-14T15:05:02;3.40;;;3.10;;
5981;SDS011;3018;48.730;9.336;2023-06-14T15:07:28;4.57;;;3.10;;
5981;SDS011;3018;48.730;9.336;2023-06-14T15:09:54;4.57;;;3.17;;
5981;SDS011;3018;48.730;9.336;2023-06-14T15:12:21;3.05;;;2.80;;
5981;SDS011;3018;48.730;9.336;2023-06-14T15:14:48;3.70;;;2.55;;
5981;SDS011;3018;48.730;9.336;2023-06-14T15:17:15;5.00;;;2.92;;
5981;SDS011;3018;48.730;9.336;2023-06-14T15:19:42;3.65;;;3.35;;